首页
METAR-TAF:

METAR-TAF

机场 :

Lanai City, 夏威夷州, 美国

纬度: 20-47N, 经度: 156-57W, 海拔: 399米

当前天气观测

该预报发布于42分钟前的12:56 UTC
风速7节,风向北转东北
温度 19°C
湿度 88%
气压 1018 hPa
能見度: 16.1公里
天空无云

METAR: PHNY 181256Z AUTO 03007KT 10SM CLR 19/17 A3007 RMK AO2 SLP163 T01940167

时间: 03:38 (13:38 UTC)

预报

该预报发布于2小时和18分钟前的11:20 UTC
预报有效从18日的 12点(UTC)到 19日的 12点(UTC)
风速7节,风向东北
能見度: 10公里
少量云层高于3000英尺
从 18日的 2000点(UTC)
风速15节,风向北转东北
能見度: 10公里
多云层高于3500英尺
从 19日的 0700点(UTC)
风速9节,风向东北
能見度: 10公里
少量云层高于3000英尺

TAF: PHNY 181120Z 1812/1912 04007KT P6SM FEW030 FM182000 02015KT P6SM BKN035 FM190700 05009KT P6SM FEW030

超过4000个机场的气象观测和天气预报(METAR&TAF报告)。

可查询的气象台以黄色和红色小点在地图上表示。

将鼠标移到小点上方,可查看气象台名称。

然后点击查看天气观测和预报。

如需切换地图:点击带黑十字的绿色按钮放大地图;点击带横线的绿色按钮缩小地图;或者点击绿色箭头查看邻近地区的地图。


METAR-TAF: